sensor_id;sensor_type;location;lat;lon;timestamp;P1;durP1;ratioP1;P2;durP2;ratioP2
55993;SDS011;67425;52.126;20.638;2023-08-17T00:01:22;17.50;;;9.85;;
55993;SDS011;67425;52.126;20.638;2023-08-17T00:03:48;15.90;;;10.85;;
55993;SDS011;67425;52.126;20.638;2023-08-17T00:06:13;10.38;;;9.20;;
55993;SDS011;67425;52.126;20.638;2023-08-17T00:08:39;12.30;;;10.50;;
55993;SDS011;67425;52.126;20.638;2023-08-17T00:11:04;13.38;;;10.75;;
55993;SDS011;67425;52.126;20.638;2023-08-17T00:13:29;24.05;;;11.00;;
55993;SDS011;67425;52.126;20.638;2023-08-17T00:15:55;15.70;;;10.25;;
55993;SDS011;67425;52.126;20.638;2023-08-17T00:18:20;11.38;;;9.95;;
55993;SDS011;67425;52.126;20.638;2023-08-17T00:20:45;15.88;;;10.73;;
55993;SDS011;67425;52.126;20.638;2023-08-17T00:23:11;11.18;;;10.07;;
55993;SDS011;67425;52.126;20.638;2023-08-17T00:25:36;15.07;;;10.68;;
55993;SDS011;67425;52.126;20.638;2023-08-17T00:28:01;15.77;;;10.47;;
55993;SDS011;67425;52.126;20.638;2023-08-17T00:30:27;10.82;;;9.73;;
55993;SDS011;67425;52.126;20.638;2023-08-17T00:32:52;17.08;;;10.13;;
55993;SDS011;67425;52.126;20.638;2023-08-17T00:35:17;14.93;;;10.70;;
55993;SDS011;67425;52.126;20.638;2023-08-17T00:37:43;19.90;;;10.68;;
55993;SDS011;67425;52.126;20.638;2023-08-17T00:40:08;16.48;;;10.38;;
55993;SDS011;67425;52.126;20.638;2023-08-17T00:42:34;12.65;;;10.38;;
55993;SDS011;67425;52.126;20.638;2023-08-17T00:44:59;13.27;;;10.35;;
55993;SDS011;67425;52.126;20.638;2023-08-17T00:47:24;18.47;;;11.07;;
55993;SDS011;67425;52.126;20.638;2023-08-17T00:49:50;15.38;;;11.38;;
55993;SDS011;67425;52.126;20.638;2023-08-17T00:52:15;11.30;;;10.07;;
55993;SDS011;67425;52.126;20.638;2023-08-17T00:54:41;12.80;;;11.05;;
55993;SDS011;67425;52.126;20.638;2023-08-17T00:57:07;19.65;;;11.80;;
55993;SDS011;67425;52.126;20.638;2023-08-17T00:59:34;12.60;;;10.68;;
55993;SDS011;67425;52.126;20.638;2023-08-17T01:02:00;21.45;;;10.82;;
55993;SDS011;67425;52.126;20.638;2023-08-17T01:04:26;15.50;;;11.10;;
55993;SDS011;67425;52.126;20.638;2023-08-17T01:06:51;15.57;;;11.27;;
55993;SDS011;67425;52.126;20.638;2023-08-17T01:09:16;14.50;;;11.15;;
55993;SDS011;67425;52.126;20.638;2023-08-17T01:11:47;18.98;;;11.20;;
55993;SDS011;67425;52.126;20.638;2023-08-17T01:14:28;13.23;;;10.90;;
55993;SDS011;67425;52.126;20.638;2023-08-17T01:17:01;13.40;;;10.90;;
55993;SDS011;67425;52.126;20.638;2023-08-17T01:19:31;12.85;;;11.52;;
55993;SDS011;67425;52.126;20.638;2023-08-17T01:22:03;14.98;;;10.95;;
55993;SDS011;67425;52.126;20.638;2023-08-17T01:24:30;22.42;;;10.85;;
55993;SDS011;67425;52.126;20.638;2023-08-17T01:26:55;14.70;;;11.40;;
55993;SDS011;67425;52.126;20.638;2023-08-17T01:29:20;19.42;;;11.55;;
55993;SDS011;67425;52.126;20.638;2023-08-17T01:31:52;13.18;;;10.98;;
55993;SDS011;67425;52.126;20.638;2023-08-17T01:34:25;17.75;;;11.25;;
55993;SDS011;67425;52.126;20.638;2023-08-17T01:36:53;19.10;;;11.85;;
55993;SDS011;67425;52.126;20.638;2023-08-17T01:39:26;11.75;;;10.52;;
55993;SDS011;67425;52.126;20.638;2023-08-17T01:41:56;16.10;;;11.45;;
55993;SDS011;67425;52.126;20.638;2023-08-17T01:44:22;12.43;;;11.10;;
55993;SDS011;67425;52.126;20.638;2023-08-17T01:46:48;11.88;;;10.68;;
55993;SDS011;67425;52.126;20.638;2023-08-17T01:49:13;14.40;;;11.40;;
55993;SDS011;67425;52.126;20.638;2023-08-17T01:51:39;23.25;;;11.60;;
55993;SDS011;67425;52.126;20.638;2023-08-17T01:54:04;17.20;;;11.27;;
55993;SDS011;67425;52.126;20.638;2023-08-17T01:56:29;12.32;;;10.73;;
55993;SDS011;67425;52.126;20.638;2023-08-17T01:58:55;13.43;;;11.13;;
55993;SDS011;67425;52.126;20.638;2023-08-17T02:01:20;17.08;;;11.55;;
55993;SDS011;67425;52.126;20.638;2023-08-17T02:03:45;14.52;;;12.13;;
55993;SDS011;67425;52.126;20.638;2023-08-17T02:06:11;14.27;;;10.82;;
55993;SDS011;67425;52.126;20.638;2023-08-17T02:08:37;15.73;;;12.13;;
55993;SDS011;67425;52.126;20.638;2023-08-17T02:11:03;14.93;;;10.93;;
55993;SDS011;67425;52.126;20.638;2023-08-17T02:13:28;13.57;;;10.90;;
55993;SDS011;67425;52.126;20.638;2023-08-17T02:15:53;13.63;;;11.10;;
55993;SDS011;67425;52.126;20.638;2023-08-17T02:18:19;16.17;;;11.65;;
55993;SDS011;67425;52.126;20.638;2023-08-17T02:20:45;14.00;;;11.02;;
55993;SDS011;67425;52.126;20.638;2023-08-17T02:23:10;16.08;;;12.38;;
55993;SDS011;67425;52.126;20.638;2023-08-17T02:25:39;14.80;;;11.02;;
55993;SDS011;67425;52.126;20.638;2023-08-17T02:28:04;14.40;;;12.23;;
55993;SDS011;67425;52.126;20.638;2023-08-17T02:30:30;23.92;;;15.52;;
55993;SDS011;67425;52.126;20.638;2023-08-17T02:32:56;18.38;;;12.65;;
55993;SDS011;67425;52.126;20.638;2023-08-17T02:35:22;19.67;;;11.93;;
55993;SDS011;67425;52.126;20.638;2023-08-17T02:37:47;16.25;;;12.10;;
55993;SDS011;67425;52.126;20.638;2023-08-17T02:40:12;17.40;;;12.10;;
55993;SDS011;67425;52.126;20.638;2023-08-17T02:42:37;15.32;;;11.63;;
55993;SDS011;67425;52.126;20.638;2023-08-17T02:45:05;15.18;;;11.48;;
55993;SDS011;67425;52.126;20.638;2023-08-17T02:47:31;20.90;;;11.95;;
55993;SDS011;67425;52.126;20.638;2023-08-17T02:49:56;13.65;;;11.55;;
55993;SDS011;67425;52.126;20.638;2023-08-17T02:52:21;15.25;;;11.73;;
55993;SDS011;67425;52.126;20.638;2023-08-17T02:54:47;15.35;;;12.05;;
55993;SDS011;67425;52.126;20.638;2023-08-17T02:57:12;13.90;;;11.77;;
55993;SDS011;67425;52.126;20.638;2023-08-17T02:59:37;16.13;;;12.55;;
55993;SDS011;67425;52.126;20.638;2023-08-17T03:02:03;15.95;;;12.38;;
55993;SDS011;67425;52.126;20.638;2023-08-17T03:04:28;18.70;;;11.65;;
55993;SDS011;67425;52.126;20.638;2023-08-17T03:06:53;14.27;;;11.57;;
55993;SDS011;67425;52.126;20.638;2023-08-17T03:09:19;17.67;;;11.50;;
55993;SDS011;67425;52.126;20.638;2023-08-17T03:11:44;17.45;;;11.65;;
55993;SDS011;67425;52.126;20.638;2023-08-17T03:14:09;13.82;;;11.93;;
55993;SDS011;67425;52.126;20.638;2023-08-17T03:16:35;18.67;;;12.40;;
55993;SDS011;67425;52.126;20.638;2023-08-17T03:19:00;21.13;;;13.30;;
55993;SDS011;67425;52.126;20.638;2023-08-17T03:21:25;24.10;;;12.00;;
55993;SDS011;67425;52.126;20.638;2023-08-17T03:23:52;16.42;;;12.70;;
55993;SDS011;67425;52.126;20.638;2023-08-17T03:26:17;14.60;;;11.55;;
55993;SDS011;67425;52.126;20.638;2023-08-17T03:28:42;20.75;;;12.30;;
55993;SDS011;67425;52.126;20.638;2023-08-17T03:31:08;25.48;;;12.52;;
55993;SDS011;67425;52.126;20.638;2023-08-17T03:33:34;14.43;;;11.48;;
55993;SDS011;67425;52.126;20.638;2023-08-17T03:36:00;26.38;;;14.50;;
55993;SDS011;67425;52.126;20.638;2023-08-17T03:38:25;17.83;;;12.38;;
55993;SDS011;67425;52.126;20.638;2023-08-17T03:40:51;22.85;;;13.73;;
55993;SDS011;67425;52.126;20.638;2023-08-17T03:43:16;20.58;;;13.35;;
55993;SDS011;67425;52.126;20.638;2023-08-17T03:45:42;20.98;;;12.30;;
55993;SDS011;67425;52.126;20.638;2023-08-17T03:48:08;22.00;;;12.27;;
55993;SDS011;67425;52.126;20.638;2023-08-17T03:50:33;22.42;;;13.68;;
55993;SDS011;67425;52.126;20.638;2023-08-17T03:52:59;20.00;;;14.18;;
55993;SDS011;67425;52.126;20.638;2023-08-17T03:55:24;17.70;;;13.32;;
55993;SDS011;67425;52.126;20.638;2023-08-17T03:57:49;18.13;;;13.23;;
55993;SDS011;67425;52.126;20.638;2023-08-17T04:00:15;17.92;;;13.43;;
55993;SDS011;67425;52.126;20.638;2023-08-17T04:02:40;21.00;;;13.70;;
55993;SDS011;67425;52.126;20.638;2023-08-17T04:05:06;20.58;;;13.18;;
55993;SDS011;67425;52.126;20.638;2023-08-17T04:07:31;19.88;;;15.18;;
55993;SDS011;67425;52.126;20.638;2023-08-17T04:09:56;33.15;;;13.50;;
55993;SDS011;67425;52.126;20.638;2023-08-17T04:12:22;31.13;;;12.55;;
55993;SDS011;67425;52.126;20.638;2023-08-17T04:14:47;20.27;;;12.98;;
55993;SDS011;67425;52.126;20.638;2023-08-17T04:17:12;18.77;;;11.77;;
55993;SDS011;67425;52.126;20.638;2023-08-17T04:19:38;17.55;;;12.27;;
55993;SDS011;67425;52.126;20.638;2023-08-17T04:22:03;17.45;;;13.07;;
55993;SDS011;67425;52.126;20.638;2023-08-17T04:24:29;14.75;;;11.77;;
55993;SDS011;67425;52.126;20.638;2023-08-17T04:26:54;24.33;;;12.65;;
55993;SDS011;67425;52.126;20.638;2023-08-17T04:29:20;16.73;;;12.57;;
55993;SDS011;67425;52.126;20.638;2023-08-17T04:31:45;14.57;;;11.73;;
55993;SDS011;67425;52.126;20.638;2023-08-17T04:34:10;20.88;;;12.10;;
55993;SDS011;67425;52.126;20.638;2023-08-17T04:36:36;16.92;;;12.07;;
55993;SDS011;67425;52.126;20.638;2023-08-17T04:39:02;23.83;;;13.27;;
55993;SDS011;67425;52.126;20.638;2023-08-17T04:41:29;20.23;;;12.82;;
55993;SDS011;67425;52.126;20.638;2023-08-17T04:43:54;16.67;;;12.95;;
55993;SDS011;67425;52.126;20.638;2023-08-17T04:46:20;24.37;;;11.83;;
55993;SDS011;67425;52.126;20.638;2023-08-17T04:48:45;15.05;;;11.82;;
55993;SDS011;67425;52.126;20.638;2023-08-17T04:51:10;14.68;;;11.38;;
55993;SDS011;67425;52.126;20.638;2023-08-17T04:53:36;17.63;;;10.95;;
55993;SDS011;67425;52.126;20.638;2023-08-17T04:56:02;20.58;;;11.35;;
55993;SDS011;67425;52.126;20.638;2023-08-17T04:58:28;11.57;;;10.38;;
55993;SDS011;67425;52.126;20.638;2023-08-17T05:00:53;15.52;;;10.50;;
55993;SDS011;67425;52.126;20.638;2023-08-17T05:03:18;19.58;;;9.38;;
55993;SDS011;67425;52.126;20.638;2023-08-17T05:05:44;17.42;;;10.35;;
55993;SDS011;67425;52.126;20.638;2023-08-17T05:08:09;24.17;;;10.80;;
55993;SDS011;67425;52.126;20.638;2023-08-17T05:10:34;14.65;;;10.05;;
55993;SDS011;67425;52.126;20.638;2023-08-17T05:13:00;13.98;;;9.50;;
55993;SDS011;67425;52.126;20.638;2023-08-17T05:15:25;19.67;;;11.80;;
55993;SDS011;67425;52.126;20.638;2023-08-17T05:17:50;14.30;;;9.18;;
55993;SDS011;67425;52.126;20.638;2023-08-17T05:20:16;12.73;;;9.50;;
55993;SDS011;67425;52.126;20.638;2023-08-17T05:22:41;18.25;;;9.55;;
55993;SDS011;67425;52.126;20.638;2023-08-17T05:25:07;14.10;;;9.18;;
55993;SDS011;67425;52.126;20.638;2023-08-17T05:27:33;14.02;;;9.73;;
55993;SDS011;67425;52.126;20.638;2023-08-17T05:29:58;16.80;;;9.80;;
55993;SDS011;67425;52.126;20.638;2023-08-17T05:32:23;11.95;;;8.63;;
55993;SDS011;67425;52.126;20.638;2023-08-17T05:34:49;11.95;;;9.43;;
55993;SDS011;67425;52.126;20.638;2023-08-17T05:37:14;9.85;;;8.30;;
55993;SDS011;67425;52.126;20.638;2023-08-17T05:39:40;12.85;;;8.50;;
55993;SDS011;67425;52.126;20.638;2023-08-17T05:42:06;22.30;;;9.32;;
55993;SDS011;67425;52.126;20.638;2023-08-17T05:44:32;13.85;;;7.97;;
55993;SDS011;67425;52.126;20.638;2023-08-17T05:46:57;17.60;;;8.50;;
55993;SDS011;67425;52.126;20.638;2023-08-17T05:49:23;16.13;;;8.63;;
55993;SDS011;67425;52.126;20.638;2023-08-17T05:51:48;10.75;;;8.10;;
55993;SDS011;67425;52.126;20.638;2023-08-17T05:54:13;14.30;;;8.43;;
55993;SDS011;67425;52.126;20.638;2023-08-17T05:56:39;13.32;;;8.27;;
55993;SDS011;67425;52.126;20.638;2023-08-17T05:59:09;11.63;;;8.30;;
55993;SDS011;67425;52.126;20.638;2023-08-17T06:01:35;11.77;;;7.20;;
55993;SDS011;67425;52.126;20.638;2023-08-17T06:04:01;16.38;;;8.15;;
55993;SDS011;67425;52.126;20.638;2023-08-17T06:06:26;16.13;;;8.18;;
55993;SDS011;67425;52.126;20.638;2023-08-17T06:08:51;7.90;;;7.10;;
55993;SDS011;67425;52.126;20.638;2023-08-17T06:11:17;12.98;;;8.35;;
55993;SDS011;67425;52.126;20.638;2023-08-17T06:13:42;17.33;;;7.65;;
55993;SDS011;67425;52.126;20.638;2023-08-17T06:16:07;12.23;;;7.95;;
55993;SDS011;67425;52.126;20.638;2023-08-17T06:18:33;12.48;;;7.15;;
55993;SDS011;67425;52.126;20.638;2023-08-17T06:20:59;18.13;;;6.63;;
55993;SDS011;67425;52.126;20.638;2023-08-17T06:23:24;19.52;;;8.23;;
55993;SDS011;67425;52.126;20.638;2023-08-17T06:25:50;10.45;;;7.68;;
55993;SDS011;67425;52.126;20.638;2023-08-17T06:28:16;19.95;;;7.35;;
55993;SDS011;67425;52.126;20.638;2023-08-17T06:30:41;14.45;;;7.07;;
55993;SDS011;67425;52.126;20.638;2023-08-17T06:33:06;13.93;;;9.40;;
55993;SDS011;67425;52.126;20.638;2023-08-17T06:35:32;25.55;;;10.00;;
55993;SDS011;67425;52.126;20.638;2023-08-17T06:37:57;11.73;;;8.32;;
55993;SDS011;67425;52.126;20.638;2023-08-17T06:40:23;13.38;;;8.52;;
55993;SDS011;67425;52.126;20.638;2023-08-17T06:42:49;13.45;;;7.32;;
55993;SDS011;67425;52.126;20.638;2023-08-17T06:45:14;15.10;;;6.25;;
55993;SDS011;67425;52.126;20.638;2023-08-17T06:47:43;13.77;;;6.40;;
55993;SDS011;67425;52.126;20.638;2023-08-17T06:50:10;12.32;;;6.78;;
55993;SDS011;67425;52.126;20.638;2023-08-17T06:52:35;21.58;;;7.28;;
55993;SDS011;67425;52.126;20.638;2023-08-17T06:55:01;11.73;;;6.00;;
55993;SDS011;67425;52.126;20.638;2023-08-17T06:57:26;15.90;;;6.80;;
55993;SDS011;67425;52.126;20.638;2023-08-17T06:59:52;12.60;;;6.63;;
55993;SDS011;67425;52.126;20.638;2023-08-17T07:02:17;12.40;;;6.43;;
55993;SDS011;67425;52.126;20.638;2023-08-17T07:04:42;10.32;;;6.53;;
55993;SDS011;67425;52.126;20.638;2023-08-17T07:07:08;13.43;;;6.03;;
55993;SDS011;67425;52.126;20.638;2023-08-17T07:09:33;9.13;;;6.13;;
55993;SDS011;67425;52.126;20.638;2023-08-17T07:11:59;14.40;;;5.93;;
55993;SDS011;67425;52.126;20.638;2023-08-17T07:14:24;7.50;;;6.35;;
55993;SDS011;67425;52.126;20.638;2023-08-17T07:16:50;6.90;;;6.20;;
55993;SDS011;67425;52.126;20.638;2023-08-17T07:19:15;8.23;;;6.68;;
55993;SDS011;67425;52.126;20.638;2023-08-17T07:21:40;6.45;;;5.88;;
55993;SDS011;67425;52.126;20.638;2023-08-17T07:24:12;17.40;;;5.70;;
55993;SDS011;67425;52.126;20.638;2023-08-17T07:26:38;19.33;;;7.13;;
55993;SDS011;67425;52.126;20.638;2023-08-17T07:29:04;8.60;;;6.28;;
55993;SDS011;67425;52.126;20.638;2023-08-17T07:31:29;13.20;;;7.45;;
55993;SDS011;67425;52.126;20.638;2023-08-17T07:33:55;9.57;;;6.38;;
55993;SDS011;67425;52.126;20.638;2023-08-17T07:36:21;12.95;;;5.93;;
55993;SDS011;67425;52.126;20.638;2023-08-17T07:38:46;10.52;;;6.43;;
55993;SDS011;67425;52.126;20.638;2023-08-17T07:41:11;10.50;;;7.03;;
55993;SDS011;67425;52.126;20.638;2023-08-17T07:43:36;8.32;;;6.50;;
55993;SDS011;67425;52.126;20.638;2023-08-17T07:46:02;8.93;;;6.80;;
55993;SDS011;67425;52.126;20.638;2023-08-17T07:48:27;8.07;;;6.13;;
55993;SDS011;67425;52.126;20.638;2023-08-17T07:50:54;15.38;;;7.20;;
55993;SDS011;67425;52.126;20.638;2023-08-17T07:53:20;18.58;;;6.18;;
55993;SDS011;67425;52.126;20.638;2023-08-17T07:55:45;9.63;;;6.38;;
55993;SDS011;67425;52.126;20.638;2023-08-17T07:58:10;11.20;;;6.57;;
55993;SDS011;67425;52.126;20.638;2023-08-17T08:00:36;13.73;;;6.45;;
55993;SDS011;67425;52.126;20.638;2023-08-17T08:03:01;9.52;;;6.40;;
55993;SDS011;67425;52.126;20.638;2023-08-17T08:05:27;18.67;;;6.97;;
55993;SDS011;67425;52.126;20.638;2023-08-17T08:07:52;8.50;;;6.90;;
55993;SDS011;67425;52.126;20.638;2023-08-17T08:10:18;16.60;;;6.82;;
55993;SDS011;67425;52.126;20.638;2023-08-17T08:12:43;14.32;;;6.88;;
55993;SDS011;67425;52.126;20.638;2023-08-17T08:15:09;7.07;;;6.15;;
55993;SDS011;67425;52.126;20.638;2023-08-17T08:17:34;14.95;;;6.88;;
55993;SDS011;67425;52.126;20.638;2023-08-17T08:20:00;10.40;;;7.28;;
55993;SDS011;67425;52.126;20.638;2023-08-17T08:22:25;12.98;;;7.07;;
55993;SDS011;67425;52.126;20.638;2023-08-17T08:24:51;15.70;;;7.07;;
55993;SDS011;67425;52.126;20.638;2023-08-17T08:27:16;7.60;;;6.70;;
55993;SDS011;67425;52.126;20.638;2023-08-17T08:29:41;7.47;;;6.57;;
55993;SDS011;67425;52.126;20.638;2023-08-17T08:32:07;14.43;;;7.07;;
55993;SDS011;67425;52.126;20.638;2023-08-17T08:34:32;11.20;;;7.00;;
55993;SDS011;67425;52.126;20.638;2023-08-17T08:36:57;11.60;;;7.07;;
55993;SDS011;67425;52.126;20.638;2023-08-17T08:39:24;11.70;;;6.63;;
55993;SDS011;67425;52.126;20.638;2023-08-17T08:41:50;11.60;;;7.30;;
55993;SDS011;67425;52.126;20.638;2023-08-17T08:44:16;12.73;;;7.50;;
55993;SDS011;67425;52.126;20.638;2023-08-17T08:46:41;11.25;;;7.05;;
55993;SDS011;67425;52.126;20.638;2023-08-17T08:49:10;11.45;;;7.20;;
55993;SDS011;67425;52.126;20.638;2023-08-17T08:51:37;16.40;;;6.75;;
55993;SDS011;67425;52.126;20.638;2023-08-17T08:54:06;9.10;;;6.85;;
55993;SDS011;67425;52.126;20.638;2023-08-17T08:56:37;13.57;;;7.28;;
55993;SDS011;67425;52.126;20.638;2023-08-17T08:59:06;15.48;;;6.35;;
55993;SDS011;67425;52.126;20.638;2023-08-17T09:01:33;7.65;;;6.82;;
55993;SDS011;67425;52.126;20.638;2023-08-17T09:03:59;7.38;;;6.65;;
55993;SDS011;67425;52.126;20.638;2023-08-17T09:06:26;8.18;;;6.50;;
55993;SDS011;67425;52.126;20.638;2023-08-17T09:08:52;9.38;;;6.65;;
55993;SDS011;67425;52.126;20.638;2023-08-17T09:11:18;10.60;;;6.53;;
55993;SDS011;67425;52.126;20.638;2023-08-17T09:13:43;12.70;;;7.00;;
55993;SDS011;67425;52.126;20.638;2023-08-17T09:16:08;10.75;;;6.68;;
55993;SDS011;67425;52.126;20.638;2023-08-17T09:18:34;10.82;;;7.20;;
55993;SDS011;67425;52.126;20.638;2023-08-17T09:21:00;11.32;;;6.50;;
55993;SDS011;67425;52.126;20.638;2023-08-17T09:23:26;8.82;;;6.65;;
55993;SDS011;67425;52.126;20.638;2023-08-17T09:25:51;8.70;;;6.50;;
55993;SDS011;67425;52.126;20.638;2023-08-17T09:28:19;9.57;;;6.32;;
55993;SDS011;67425;52.126;20.638;2023-08-17T09:30:55;12.38;;;6.40;;
55993;SDS011;67425;52.126;20.638;2023-08-17T09:33:29;10.55;;;5.57;;
55993;SDS011;67425;52.126;20.638;2023-08-17T09:35:55;10.85;;;6.05;;
55993;SDS011;67425;52.126;20.638;2023-08-17T09:38:22;9.85;;;5.20;;
55993;SDS011;67425;52.126;20.638;2023-08-17T09:40:48;10.88;;;5.30;;
55993;SDS011;67425;52.126;20.638;2023-08-17T09:43:15;6.82;;;4.65;;
55993;SDS011;67425;52.126;20.638;2023-08-17T09:45:42;5.32;;;4.82;;
55993;SDS011;67425;52.126;20.638;2023-08-17T09:48:16;12.23;;;4.50;;
55993;SDS011;67425;52.126;20.638;2023-08-17T09:50:43;10.05;;;3.85;;
55993;SDS011;67425;52.126;20.638;2023-08-17T09:53:16;4.40;;;4.10;;
55993;SDS011;67425;52.126;20.638;2023-08-17T09:55:43;7.65;;;4.05;;
55993;SDS011;67425;52.126;20.638;2023-08-17T09:58:09;5.88;;;4.47;;
55993;SDS011;67425;52.126;20.638;2023-08-17T10:00:40;6.68;;;5.03;;
55993;SDS011;67425;52.126;20.638;2023-08-17T10:03:10;12.52;;;4.38;;
55993;SDS011;67425;52.126;20.638;2023-08-17T10:05:38;6.00;;;4.30;;
55993;SDS011;67425;52.126;20.638;2023-08-17T10:08:06;4.43;;;4.13;;
55993;SDS011;67425;52.126;20.638;2023-08-17T10:10:32;6.35;;;3.85;;
55993;SDS011;67425;52.126;20.638;2023-08-17T10:13:09;5.05;;;3.80;;
55993;SDS011;67425;52.126;20.638;2023-08-17T10:15:44;5.05;;;3.45;;
55993;SDS011;67425;52.126;20.638;2023-08-17T10:20:45;8.68;;;4.25;;
55993;SDS011;67425;52.126;20.638;2023-08-17T10:23:19;4.53;;;3.67;;
55993;SDS011;67425;52.126;20.638;2023-08-17T10:25:47;5.22;;;3.50;;
55993;SDS011;67425;52.126;20.638;2023-08-17T10:28:15;5.60;;;3.30;;
55993;SDS011;67425;52.126;20.638;2023-08-17T10:30:41;4.68;;;3.63;;
55993;SDS011;67425;52.126;20.638;2023-08-17T10:33:08;5.97;;;3.75;;
55993;SDS011;67425;52.126;20.638;2023-08-17T10:35:34;11.18;;;4.35;;
55993;SDS011;67425;52.126;20.638;2023-08-17T10:38:02;6.88;;;3.95;;
55993;SDS011;67425;52.126;20.638;2023-08-17T10:40:33;8.45;;;3.45;;
55993;SDS011;67425;52.126;20.638;2023-08-17T10:43:00;7.53;;;3.50;;
55993;SDS011;67425;52.126;20.638;2023-08-17T10:50:32;3.78;;;3.30;;
55993;SDS011;67425;52.126;20.638;2023-08-17T10:52:58;4.40;;;2.80;;
55993;SDS011;67425;52.126;20.638;2023-08-17T10:55:36;4.97;;;3.40;;
55993;SDS011;67425;52.126;20.638;2023-08-17T10:58:02;8.55;;;3.80;;
55993;SDS011;67425;52.126;20.638;2023-08-17T11:00:33;6.35;;;3.50;;
55993;SDS011;67425;52.126;20.638;2023-08-17T11:03:04;3.70;;;3.43;;
55993;SDS011;67425;52.126;20.638;2023-08-17T11:08:06;4.55;;;2.92;;
55993;SDS011;67425;52.126;20.638;2023-08-17T11:10:33;15.02;;;2.90;;
55993;SDS011;67425;52.126;20.638;2023-08-17T11:12:59;8.05;;;3.00;;
55993;SDS011;67425;52.126;20.638;2023-08-17T11:15:25;6.05;;;2.55;;
55993;SDS011;67425;52.126;20.638;2023-08-17T11:18:00;2.95;;;2.40;;
55993;SDS011;67425;52.126;20.638;2023-08-17T11:20:25;2.63;;;2.20;;
55993;SDS011;67425;52.126;20.638;2023-08-17T11:22:51;1.98;;;1.88;;
55993;SDS011;67425;52.126;20.638;2023-08-17T11:25:17;4.85;;;2.30;;
55993;SDS011;67425;52.126;20.638;2023-08-17T11:27:42;4.50;;;3.10;;
55993;SDS011;67425;52.126;20.638;2023-08-17T11:30:08;6.22;;;2.22;;
55993;SDS011;67425;52.126;20.638;2023-08-17T11:32:34;4.47;;;2.35;;
55993;SDS011;67425;52.126;20.638;2023-08-17T11:34:59;4.90;;;2.72;;
55993;SDS011;67425;52.126;20.638;2023-08-17T11:37:24;2.53;;;2.40;;
55993;SDS011;67425;52.126;20.638;2023-08-17T11:39:50;14.38;;;2.72;;
55993;SDS011;67425;52.126;20.638;2023-08-17T11:42:15;5.38;;;3.13;;
55993;SDS011;67425;52.126;20.638;2023-08-17T11:44:41;4.90;;;2.80;;
55993;SDS011;67425;52.126;20.638;2023-08-17T11:47:06;3.50;;;2.80;;
55993;SDS011;67425;52.126;20.638;2023-08-17T11:49:32;6.15;;;2.20;;
55993;SDS011;67425;52.126;20.638;2023-08-17T11:51:57;2.97;;;2.20;;
55993;SDS011;67425;52.126;20.638;2023-08-17T11:54:22;2.63;;;2.43;;
55993;SDS011;67425;52.126;20.638;2023-08-17T11:56:48;2.33;;;2.13;;
55993;SDS011;67425;52.126;20.638;2023-08-17T11:59:13;5.13;;;2.42;;
55993;SDS011;67425;52.126;20.638;2023-08-17T12:01:39;3.67;;;2.38;;
55993;SDS011;67425;52.126;20.638;2023-08-17T12:04:05;5.65;;;2.10;;
55993;SDS011;67425;52.126;20.638;2023-08-17T12:06:31;3.78;;;2.20;;
55993;SDS011;67425;52.126;20.638;2023-08-17T12:08:57;6.03;;;2.92;;
55993;SDS011;67425;52.126;20.638;2023-08-17T12:11:25;2.65;;;2.38;;
55993;SDS011;67425;52.126;20.638;2023-08-17T12:13:51;4.75;;;2.60;;
55993;SDS011;67425;52.126;20.638;2023-08-17T12:16:18;8.57;;;2.00;;
55993;SDS011;67425;52.126;20.638;2023-08-17T12:18:51;3.25;;;2.60;;
55993;SDS011;67425;52.126;20.638;2023-08-17T12:21:20;10.45;;;2.80;;
55993;SDS011;67425;52.126;20.638;2023-08-17T12:23:47;4.03;;;2.35;;
55993;SDS011;67425;52.126;20.638;2023-08-17T12:26:17;9.13;;;2.80;;
55993;SDS011;67425;52.126;20.638;2023-08-17T12:28:44;12.07;;;2.33;;
55993;SDS011;67425;52.126;20.638;2023-08-17T12:31:09;9.23;;;2.93;;
55993;SDS011;67425;52.126;20.638;2023-08-17T12:33:35;5.25;;;2.80;;
55993;SDS011;67425;52.126;20.638;2023-08-17T12:36:00;2.15;;;2.05;;
55993;SDS011;67425;52.126;20.638;2023-08-17T12:38:25;4.43;;;2.30;;
55993;SDS011;67425;52.126;20.638;2023-08-17T12:40:51;7.03;;;2.35;;
55993;SDS011;67425;52.126;20.638;2023-08-17T12:43:16;4.40;;;2.15;;
55993;SDS011;67425;52.126;20.638;2023-08-17T12:45:41;3.40;;;2.33;;
55993;SDS011;67425;52.126;20.638;2023-08-17T12:48:07;2.27;;;1.83;;
55993;SDS011;67425;52.126;20.638;2023-08-17T12:50:32;5.17;;;2.20;;
55993;SDS011;67425;52.126;20.638;2023-08-17T12:52:57;6.15;;;2.50;;
55993;SDS011;67425;52.126;20.638;2023-08-17T12:55:23;8.43;;;2.13;;
55993;SDS011;67425;52.126;20.638;2023-08-17T12:57:48;3.47;;;2.53;;
55993;SDS011;67425;52.126;20.638;2023-08-17T13:00:14;5.07;;;2.23;;
55993;SDS011;67425;52.126;20.638;2023-08-17T13:02:39;13.15;;;2.65;;
55993;SDS011;67425;52.126;20.638;2023-08-17T13:05:05;7.93;;;2.13;;
55993;SDS011;67425;52.126;20.638;2023-08-17T13:07:30;9.32;;;2.80;;
55993;SDS011;67425;52.126;20.638;2023-08-17T13:09:55;6.67;;;2.80;;
55993;SDS011;67425;52.126;20.638;2023-08-17T13:12:21;5.80;;;2.73;;
55993;SDS011;67425;52.126;20.638;2023-08-17T13:14:46;4.87;;;2.23;;
55993;SDS011;67425;52.126;20.638;2023-08-17T13:17:11;4.23;;;2.40;;
55993;SDS011;67425;52.126;20.638;2023-08-17T13:19:39;8.35;;;2.65;;
55993;SDS011;67425;52.126;20.638;2023-08-17T13:22:04;4.32;;;2.30;;
55993;SDS011;67425;52.126;20.638;2023-08-17T13:24:30;5.10;;;2.50;;
55993;SDS011;67425;52.126;20.638;2023-08-17T13:26:55;6.15;;;2.55;;
55993;SDS011;67425;52.126;20.638;2023-08-17T13:29:22;10.15;;;2.60;;
55993;SDS011;67425;52.126;20.638;2023-08-17T13:31:47;6.50;;;2.60;;
55993;SDS011;67425;52.126;20.638;2023-08-17T13:34:13;9.48;;;2.35;;
55993;SDS011;67425;52.126;20.638;2023-08-17T13:36:38;2.65;;;2.22;;
55993;SDS011;67425;52.126;20.638;2023-08-17T13:39:04;5.07;;;3.15;;
55993;SDS011;67425;52.126;20.638;2023-08-17T13:41:30;7.75;;;2.67;;
55993;SDS011;67425;52.126;20.638;2023-08-17T13:43:55;9.07;;;2.65;;
55993;SDS011;67425;52.126;20.638;2023-08-17T13:46:22;7.65;;;2.83;;
55993;SDS011;67425;52.126;20.638;2023-08-17T13:48:48;11.48;;;2.55;;
55993;SDS011;67425;52.126;20.638;2023-08-17T13:51:13;3.50;;;2.97;;
55993;SDS011;67425;52.126;20.638;2023-08-17T13:53:39;4.93;;;2.47;;
55993;SDS011;67425;52.126;20.638;2023-08-17T13:56:05;3.03;;;2.20;;
55993;SDS011;67425;52.126;20.638;2023-08-17T13:58:30;3.33;;;2.72;;
55993;SDS011;67425;52.126;20.638;2023-08-17T14:00:56;5.90;;;1.85;;
55993;SDS011;67425;52.126;20.638;2023-08-17T14:03:22;9.48;;;2.30;;
55993;SDS011;67425;52.126;20.638;2023-08-17T14:05:48;2.45;;;2.03;;
55993;SDS011;67425;52.126;20.638;2023-08-17T14:08:13;6.33;;;3.27;;
55993;SDS011;67425;52.126;20.638;2023-08-17T14:10:38;2.13;;;1.93;;
55993;SDS011;67425;52.126;20.638;2023-08-17T14:13:04;5.90;;;2.75;;
55993;SDS011;67425;52.126;20.638;2023-08-17T14:15:29;4.75;;;2.25;;
55993;SDS011;67425;52.126;20.638;2023-08-17T14:17:55;2.22;;;2.13;;
55993;SDS011;67425;52.126;20.638;2023-08-17T14:20:20;3.90;;;2.50;;
55993;SDS011;67425;52.126;20.638;2023-08-17T14:22:45;5.75;;;2.20;;
55993;SDS011;67425;52.126;20.638;2023-08-17T14:25:11;4.80;;;2.20;;